sensor_id;sensor_type;location;lat;lon;timestamp;P1;durP1;ratioP1;P2;durP2;ratioP2
31974;SDS011;18500;43.618;1.474;2023-04-21T06:45:47;497.30;;;463.23;;
31974;SDS011;18500;43.618;1.474;2023-04-21T06:48:12;580.85;;;538.45;;
31974;SDS011;18500;43.618;1.474;2023-04-21T06:50:38;535.83;;;498.60;;
31974;SDS011;18500;43.618;1.474;2023-04-21T06:53:03;525.97;;;491.98;;
31974;SDS011;18500;43.618;1.474;2023-04-21T06:55:29;620.13;;;577.15;;
31974;SDS011;18500;43.618;1.474;2023-04-21T06:57:55;469.55;;;440.25;;
31974;SDS011;18500;43.618;1.474;2023-04-21T07:00:20;523.42;;;490.15;;
31974;SDS011;18500;43.618;1.474;2023-04-21T07:02:46;608.47;;;567.70;;
31974;SDS011;18500;43.618;1.474;2023-04-21T07:05:12;552.95;;;517.45;;
31974;SDS011;18500;43.618;1.474;2023-04-21T07:07:38;639.97;;;594.35;;
31974;SDS011;18500;43.618;1.474;2023-04-21T07:10:03;581.80;;;541.05;;
31974;SDS011;18500;43.618;1.474;2023-04-21T07:12:29;644.80;;;600.20;;
31974;SDS011;18500;43.618;1.474;2023-04-21T07:14:55;666.72;;;619.28;;
31974;SDS011;18500;43.618;1.474;2023-04-21T07:17:20;618.00;;;575.80;;
31974;SDS011;18500;43.618;1.474;2023-04-21T07:19:46;599.90;;;559.97;;
31974;SDS011;18500;43.618;1.474;2023-04-21T07:22:12;676.45;;;629.58;;
31974;SDS011;18500;43.618;1.474;2023-04-21T07:24:37;634.53;;;592.05;;
31974;SDS011;18500;43.618;1.474;2023-04-21T07:27:03;662.33;;;613.95;;
31974;SDS011;18500;43.618;1.474;2023-04-21T07:29:29;639.45;;;594.83;;
31974;SDS011;18500;43.618;1.474;2023-04-21T07:31:54;650.92;;;604.33;;
31974;SDS011;18500;43.618;1.474;2023-04-21T07:34:22;573.95;;;535.05;;
31974;SDS011;18500;43.618;1.474;2023-04-21T07:36:51;735.20;;;678.35;;
31974;SDS011;18500;43.618;1.474;2023-04-21T07:39:18;637.75;;;593.08;;
31974;SDS011;18500;43.618;1.474;2023-04-21T07:41:44;693.42;;;644.47;;
31974;SDS011;18500;43.618;1.474;2023-04-21T07:44:10;827.92;;;759.92;;
31974;SDS011;18500;43.618;1.474;2023-04-21T07:46:35;685.53;;;636.45;;
31974;SDS011;18500;43.618;1.474;2023-04-21T07:49:01;890.10;;;826.10;;
31974;SDS011;18500;43.618;1.474;2023-04-21T07:51:27;904.05;;;838.88;;
31974;SDS011;18500;43.618;1.474;2023-04-21T07:53:53;897.10;;;834.33;;
31974;SDS011;18500;43.618;1.474;2023-04-21T07:56:18;890.00;;;824.67;;
31974;SDS011;18500;43.618;1.474;2023-04-21T07:58:44;933.80;;;866.08;;
31974;SDS011;18500;43.618;1.474;2023-04-21T08:01:10;972.13;;;896.85;;
31974;SDS011;18500;43.618;1.474;2023-04-21T08:03:36;641.75;;;597.65;;
31974;SDS011;18500;43.618;1.474;2023-04-21T08:06:01;891.50;;;828.20;;
31974;SDS011;18500;43.618;1.474;2023-04-21T08:08:27;711.45;;;662.17;;
31974;SDS011;18500;43.618;1.474;2023-04-21T08:10:53;678.65;;;631.03;;
31974;SDS011;18500;43.618;1.474;2023-04-21T08:13:18;627.72;;;583.80;;
31974;SDS011;18500;43.618;1.474;2023-04-21T08:15:49;617.30;;;577.05;;
31974;SDS011;18500;43.618;1.474;2023-04-21T08:18:15;756.92;;;706.13;;
31974;SDS011;18500;43.618;1.474;2023-04-21T08:20:42;892.25;;;826.85;;
31974;SDS011;18500;43.618;1.474;2023-04-21T08:23:09;783.58;;;727.95;;
31974;SDS011;18500;43.618;1.474;2023-04-21T08:25:34;846.30;;;779.83;;
31974;SDS011;18500;43.618;1.474;2023-04-21T08:28:00;754.35;;;701.22;;
31974;SDS011;18500;43.618;1.474;2023-04-21T08:30:27;796.45;;;737.97;;
31974;SDS011;18500;43.618;1.474;2023-04-21T08:32:52;772.78;;;712.22;;
31974;SDS011;18500;43.618;1.474;2023-04-21T08:35:18;696.63;;;645.88;;
31974;SDS011;18500;43.618;1.474;2023-04-21T08:37:44;909.90;;;838.70;;
31974;SDS011;18500;43.618;1.474;2023-04-21T08:40:10;962.78;;;886.08;;
31974;SDS011;18500;43.618;1.474;2023-04-21T08:42:37;875.25;;;804.53;;
31974;SDS011;18500;43.618;1.474;2023-04-21T08:45:03;910.78;;;834.08;;
31974;SDS011;18500;43.618;1.474;2023-04-21T08:47:31;948.00;;;869.70;;
31974;SDS011;18500;43.618;1.474;2023-04-21T08:49:57;873.67;;;800.90;;
31974;SDS011;18500;43.618;1.474;2023-04-21T08:52:23;945.72;;;866.45;;
31974;SDS011;18500;43.618;1.474;2023-04-21T08:54:49;963.97;;;883.30;;
31974;SDS011;18500;43.618;1.474;2023-04-21T08:57:17;902.88;;;833.28;;
31974;SDS011;18500;43.618;1.474;2023-04-21T08:59:43;1012.40;;;921.58;;
31974;SDS011;18500;43.618;1.474;2023-04-21T09:04:42;999.38;;;907.95;;
31974;SDS011;18500;43.618;1.474;2023-04-21T09:07:10;1009.38;;;920.70;;
31974;SDS011;18500;43.618;1.474;2023-04-21T09:09:53;939.70;;;861.28;;
31974;SDS011;18500;43.618;1.474;2023-04-21T09:12:19;821.70;;;760.22;;
31974;SDS011;18500;43.618;1.474;2023-04-21T09:14:45;912.47;;;838.17;;
31974;SDS011;18500;43.618;1.474;2023-04-21T09:17:11;942.15;;;867.60;;
31974;SDS011;18500;43.618;1.474;2023-04-21T09:19:39;934.80;;;861.90;;
31974;SDS011;18500;43.618;1.474;2023-04-21T09:22:04;988.60;;;906.75;;
31974;SDS011;18500;43.618;1.474;2023-04-21T09:24:30;1011.22;;;921.30;;
31974;SDS011;18500;43.618;1.474;2023-04-21T09:26:56;1034.78;;;943.35;;
31974;SDS011;18500;43.618;1.474;2023-04-21T09:29:22;1046.15;;;955.15;;
31974;SDS011;18500;43.618;1.474;2023-04-21T09:31:49;952.28;;;877.30;;
31974;SDS011;18500;43.618;1.474;2023-04-21T09:34:19;967.50;;;885.45;;
31974;SDS011;18500;43.618;1.474;2023-04-21T09:36:48;894.47;;;825.10;;
31974;SDS011;18500;43.618;1.474;2023-04-21T09:39:30;851.00;;;786.05;;
31974;SDS011;18500;43.618;1.474;2023-04-21T09:41:57;960.70;;;874.40;;
31974;SDS011;18500;43.618;1.474;2023-04-21T09:44:24;920.83;;;848.92;;
31974;SDS011;18500;43.618;1.474;2023-04-21T09:46:50;899.65;;;829.45;;
31974;SDS011;18500;43.618;1.474;2023-04-21T09:49:21;784.50;;;723.13;;
31974;SDS011;18500;43.618;1.474;2023-04-21T09:51:49;711.67;;;655.45;;
31974;SDS011;18500;43.618;1.474;2023-04-21T09:54:16;728.40;;;670.60;;
31974;SDS011;18500;43.618;1.474;2023-04-21T09:56:43;802.40;;;736.60;;
31974;SDS011;18500;43.618;1.474;2023-04-21T09:59:24;784.88;;;719.92;;
31974;SDS011;18500;43.618;1.474;2023-04-21T10:01:53;619.80;;;573.03;;
31974;SDS011;18500;43.618;1.474;2023-04-21T10:04:21;704.85;;;649.10;;
31974;SDS011;18500;43.618;1.474;2023-04-21T10:06:48;720.05;;;665.33;;
31974;SDS011;18500;43.618;1.474;2023-04-21T10:09:16;758.20;;;697.92;;
31974;SDS011;18500;43.618;1.474;2023-04-21T10:11:45;870.42;;;796.58;;
31974;SDS011;18500;43.618;1.474;2023-04-21T10:14:10;931.13;;;854.72;;
31974;SDS011;18500;43.618;1.474;2023-04-21T10:16:37;1076.70;;;976.10;;
31974;SDS011;18500;43.618;1.474;2023-04-21T10:19:21;1100.88;;;995.45;;
31974;SDS011;18500;43.618;1.474;2023-04-21T10:21:56;1127.80;;;999.90;;
31974;SDS011;18500;43.618;1.474;2023-04-21T10:24:22;931.58;;;853.90;;
31974;SDS011;18500;43.618;1.474;2023-04-21T10:26:49;1031.43;;;937.75;;
31974;SDS011;18500;43.618;1.474;2023-04-21T10:29:15;827.70;;;763.42;;
31974;SDS011;18500;43.618;1.474;2023-04-21T10:31:52;858.33;;;792.28;;
31974;SDS011;18500;43.618;1.474;2023-04-21T10:34:27;866.15;;;799.80;;
31974;SDS011;18500;43.618;1.474;2023-04-21T10:39:28;698.05;;;643.28;;
31974;SDS011;18500;43.618;1.474;2023-04-21T10:41:55;960.30;;;875.20;;
31974;SDS011;18500;43.618;1.474;2023-04-21T10:44:40;1039.47;;;937.97;;
31974;SDS011;18500;43.618;1.474;2023-04-21T10:49:50;990.83;;;897.15;;
31974;SDS011;18500;43.618;1.474;2023-04-21T10:52:16;1068.03;;;957.63;;
31974;SDS011;18500;43.618;1.474;2023-04-21T10:57:14;991.35;;;896.95;;
31974;SDS011;18500;43.618;1.474;2023-04-21T10:59:41;882.97;;;797.17;;
31974;SDS011;18500;43.618;1.474;2023-04-21T11:02:11;905.50;;;815.00;;
31974;SDS011;18500;43.618;1.474;2023-04-21T11:04:39;906.25;;;814.20;;
31974;SDS011;18500;43.618;1.474;2023-04-21T11:07:15;1035.22;;;928.83;;
31974;SDS011;18500;43.618;1.474;2023-04-21T11:09:42;1102.30;;;982.72;;
31974;SDS011;18500;43.618;1.474;2023-04-21T11:12:10;1091.55;;;977.38;;
31974;SDS011;18500;43.618;1.474;2023-04-21T11:14:40;1205.55;;;999.90;;
31974;SDS011;18500;43.618;1.474;2023-04-21T11:17:11;778.00;;;710.80;;
31974;SDS011;18500;43.618;1.474;2023-04-21T11:19:40;1019.17;;;917.00;;
31974;SDS011;18500;43.618;1.474;2023-04-21T11:22:09;1174.97;;;999.90;;
31974;SDS011;18500;43.618;1.474;2023-04-21T11:24:35;1120.68;;;998.83;;
31974;SDS011;18500;43.618;1.474;2023-04-21T11:27:01;1439.90;;;999.90;;
31974;SDS011;18500;43.618;1.474;2023-04-21T11:29:26;1635.45;;;999.90;;
31974;SDS011;18500;43.618;1.474;2023-04-21T11:31:55;1762.90;;;999.90;;
31974;SDS011;18500;43.618;1.474;2023-04-21T11:34:24;1977.28;;;999.90;;
31974;SDS011;18500;43.618;1.474;2023-04-21T11:36:50;1999.40;;;999.90;;
31974;SDS011;18500;43.618;1.474;2023-04-21T11:39:17;1437.00;;;999.90;;
31974;SDS011;18500;43.618;1.474;2023-04-21T11:41:47;1421.97;;;999.90;;
31974;SDS011;18500;43.618;1.474;2023-04-21T11:44:29;1859.28;;;999.90;;
31974;SDS011;18500;43.618;1.474;2023-04-21T11:46:55;1417.05;;;999.90;;
31974;SDS011;18500;43.618;1.474;2023-04-21T11:49:23;1553.93;;;999.90;;
31974;SDS011;18500;43.618;1.474;2023-04-21T11:51:50;1726.95;;;999.90;;
31974;SDS011;18500;43.618;1.474;2023-04-21T11:54:16;1597.43;;;999.90;;
31974;SDS011;18500;43.618;1.474;2023-04-21T11:56:46;1848.78;;;999.90;;
31974;SDS011;18500;43.618;1.474;2023-04-21T11:59:13;1773.32;;;999.90;;
31974;SDS011;18500;43.618;1.474;2023-04-21T12:01:43;1999.90;;;999.90;;
31974;SDS011;18500;43.618;1.474;2023-04-21T12:04:17;1663.18;;;999.90;;
31974;SDS011;18500;43.618;1.474;2023-04-21T12:06:55;1824.45;;;999.90;;
31974;SDS011;18500;43.618;1.474;2023-04-21T12:09:23;1638.55;;;999.90;;
31974;SDS011;18500;43.618;1.474;2023-04-21T12:11:53;1999.90;;;999.90;;
31974;SDS011;18500;43.618;1.474;2023-04-21T12:14:20;1999.90;;;999.90;;
31974;SDS011;18500;43.618;1.474;2023-04-21T12:16:47;1999.90;;;999.90;;
31974;SDS011;18500;43.618;1.474;2023-04-21T12:19:34;1691.43;;;999.90;;
31974;SDS011;18500;43.618;1.474;2023-04-21T12:22:00;1999.90;;;999.90;;
31974;SDS011;18500;43.618;1.474;2023-04-21T12:24:26;1999.90;;;999.90;;
31974;SDS011;18500;43.618;1.474;2023-04-21T12:26:52;1999.90;;;999.90;;
31974;SDS011;18500;43.618;1.474;2023-04-21T12:29:18;1999.90;;;999.90;;
31974;SDS011;18500;43.618;1.474;2023-04-21T12:31:44;1871.65;;;999.90;;
31974;SDS011;18500;43.618;1.474;2023-04-21T12:34:09;1686.97;;;999.90;;
31974;SDS011;18500;43.618;1.474;2023-04-21T12:36:35;1567.15;;;999.90;;
31974;SDS011;18500;43.618;1.474;2023-04-21T12:39:01;1008.00;;;907.00;;
31974;SDS011;18500;43.618;1.474;2023-04-21T12:41:26;1047.53;;;934.95;;
31974;SDS011;18500;43.618;1.474;2023-04-21T12:43:52;1067.75;;;949.55;;
31974;SDS011;18500;43.618;1.474;2023-04-21T12:46:18;908.50;;;829.90;;
31974;SDS011;18500;43.618;1.474;2023-04-21T12:48:43;891.75;;;817.25;;
31974;SDS011;18500;43.618;1.474;2023-04-21T12:51:09;962.65;;;872.45;;
31974;SDS011;18500;43.618;1.474;2023-04-21T12:53:35;1043.03;;;938.28;;
31974;SDS011;18500;43.618;1.474;2023-04-21T12:56:01;1318.53;;;999.90;;
31974;SDS011;18500;43.618;1.474;2023-04-21T12:58:27;1241.50;;;999.90;;
31974;SDS011;18500;43.618;1.474;2023-04-21T13:00:53;1303.20;;;999.90;;
31974;SDS011;18500;43.618;1.474;2023-04-21T13:03:19;1225.82;;;999.90;;
31974;SDS011;18500;43.618;1.474;2023-04-21T13:05:45;1259.63;;;999.90;;
31974;SDS011;18500;43.618;1.474;2023-04-21T13:08:11;1250.43;;;999.90;;
31974;SDS011;18500;43.618;1.474;2023-04-21T13:10:36;1262.47;;;999.90;;
31974;SDS011;18500;43.618;1.474;2023-04-21T13:13:02;1143.80;;;999.90;;
31974;SDS011;18500;43.618;1.474;2023-04-21T13:15:28;1174.20;;;999.90;;
31974;SDS011;18500;43.618;1.474;2023-04-21T13:17:53;1168.55;;;999.90;;
31974;SDS011;18500;43.618;1.474;2023-04-21T13:20:19;1180.40;;;999.90;;
31974;SDS011;18500;43.618;1.474;2023-04-21T13:22:46;1133.97;;;999.90;;
31974;SDS011;18500;43.618;1.474;2023-04-21T13:25:12;1024.22;;;930.05;;
31974;SDS011;18500;43.618;1.474;2023-04-21T13:27:38;981.42;;;893.53;;
31974;SDS011;18500;43.618;1.474;2023-04-21T13:30:08;965.47;;;878.17;;
31974;SDS011;18500;43.618;1.474;2023-04-21T13:32:35;1082.32;;;971.13;;
31974;SDS011;18500;43.618;1.474;2023-04-21T13:35:02;992.95;;;896.95;;
31974;SDS011;18500;43.618;1.474;2023-04-21T13:37:37;898.35;;;821.50;;
31974;SDS011;18500;43.618;1.474;2023-04-21T13:40:04;1012.15;;;913.88;;
31974;SDS011;18500;43.618;1.474;2023-04-21T13:42:32;990.75;;;895.72;;
31974;SDS011;18500;43.618;1.474;2023-04-21T13:44:58;1023.30;;;920.88;;
31974;SDS011;18500;43.618;1.474;2023-04-21T13:47:27;959.08;;;872.47;;
31974;SDS011;18500;43.618;1.474;2023-04-21T13:49:54;940.97;;;857.88;;
31974;SDS011;18500;43.618;1.474;2023-04-21T13:52:20;934.88;;;854.28;;
31974;SDS011;18500;43.618;1.474;2023-04-21T13:54:46;943.22;;;861.35;;
31974;SDS011;18500;43.618;1.474;2023-04-21T13:57:11;984.55;;;893.78;;
31974;SDS011;18500;43.618;1.474;2023-04-21T13:59:37;1001.10;;;908.88;;
31974;SDS011;18500;43.618;1.474;2023-04-21T14:02:03;1050.93;;;943.30;;
31974;SDS011;18500;43.618;1.474;2023-04-21T14:04:28;1046.30;;;940.70;;
31974;SDS011;18500;43.618;1.474;2023-04-21T14:06:54;1167.05;;;999.90;;
31974;SDS011;18500;43.618;1.474;2023-04-21T14:09:20;1145.38;;;999.90;;
31974;SDS011;18500;43.618;1.474;2023-04-21T14:11:46;1142.82;;;999.90;;
31974;SDS011;18500;43.618;1.474;2023-04-21T14:14:11;1148.47;;;999.90;;
31974;SDS011;18500;43.618;1.474;2023-04-21T14:16:37;1296.97;;;999.90;;
31974;SDS011;18500;43.618;1.474;2023-04-21T14:19:03;1231.63;;;999.90;;
31974;SDS011;18500;43.618;1.474;2023-04-21T14:21:28;1383.70;;;999.90;;
31974;SDS011;18500;43.618;1.474;2023-04-21T14:23:55;1494.63;;;999.90;;
31974;SDS011;18500;43.618;1.474;2023-04-21T14:26:21;1581.18;;;999.90;;
31974;SDS011;18500;43.618;1.474;2023-04-21T14:28:47;1488.95;;;999.90;;
31974;SDS011;18500;43.618;1.474;2023-04-21T14:31:13;1792.45;;;999.90;;
31974;SDS011;18500;43.618;1.474;2023-04-21T14:33:39;1845.00;;;999.90;;
31974;SDS011;18500;43.618;1.474;2023-04-21T14:36:05;1769.82;;;999.90;;
31974;SDS011;18500;43.618;1.474;2023-04-21T14:38:32;1599.20;;;999.90;;
31974;SDS011;18500;43.618;1.474;2023-04-21T14:40:57;1152.88;;;999.90;;
31974;SDS011;18500;43.618;1.474;2023-04-21T14:43:23;1350.22;;;999.90;;
31974;SDS011;18500;43.618;1.474;2023-04-21T14:45:49;1706.25;;;999.90;;
31974;SDS011;18500;43.618;1.474;2023-04-21T14:48:14;1441.28;;;999.90;;
31974;SDS011;18500;43.618;1.474;2023-04-21T14:50:40;1999.90;;;999.90;;
31974;SDS011;18500;43.618;1.474;2023-04-21T14:53:06;1999.90;;;999.90;;
31974;SDS011;18500;43.618;1.474;2023-04-21T14:55:32;1999.90;;;999.90;;
31974;SDS011;18500;43.618;1.474;2023-04-21T14:57:57;1999.90;;;999.90;;
31974;SDS011;18500;43.618;1.474;2023-04-21T15:00:23;1999.90;;;999.90;;
31974;SDS011;18500;43.618;1.474;2023-04-21T15:02:50;1999.90;;;999.90;;
31974;SDS011;18500;43.618;1.474;2023-04-21T15:05:16;1999.90;;;999.90;;
31974;SDS011;18500;43.618;1.474;2023-04-21T15:07:42;1999.90;;;999.90;;
31974;SDS011;18500;43.618;1.474;2023-04-21T15:10:08;1999.90;;;999.90;;
31974;SDS011;18500;43.618;1.474;2023-04-21T15:12:37;1999.90;;;999.90;;
31974;SDS011;18500;43.618;1.474;2023-04-21T15:15:05;1999.90;;;999.90;;
31974;SDS011;18500;43.618;1.474;2023-04-21T15:17:31;1999.90;;;999.90;;
31974;SDS011;18500;43.618;1.474;2023-04-21T15:19:56;1999.90;;;999.90;;
31974;SDS011;18500;43.618;1.474;2023-04-21T15:22:22;1999.90;;;999.90;;
31974;SDS011;18500;43.618;1.474;2023-04-21T15:24:48;1999.90;;;999.90;;
31974;SDS011;18500;43.618;1.474;2023-04-21T15:27:13;1999.90;;;999.90;;
31974;SDS011;18500;43.618;1.474;2023-04-21T15:29:40;1999.90;;;999.90;;
31974;SDS011;18500;43.618;1.474;2023-04-21T15:32:05;1999.90;;;999.90;;
31974;SDS011;18500;43.618;1.474;2023-04-21T15:34:31;1999.90;;;999.90;;
31974;SDS011;18500;43.618;1.474;2023-04-21T15:36:57;1999.90;;;999.90;;
31974;SDS011;18500;43.618;1.474;2023-04-21T15:39:22;1999.90;;;999.90;;
31974;SDS011;18500;43.618;1.474;2023-04-21T15:41:48;1999.90;;;999.90;;
31974;SDS011;18500;43.618;1.474;2023-04-21T15:44:14;1999.90;;;999.90;;
31974;SDS011;18500;43.618;1.474;2023-04-21T15:46:39;1999.90;;;999.90;;
31974;SDS011;18500;43.618;1.474;2023-04-21T15:49:05;1999.90;;;999.90;;
31974;SDS011;18500;43.618;1.474;2023-04-21T15:51:31;1999.90;;;999.90;;
31974;SDS011;18500;43.618;1.474;2023-04-21T15:53:58;1999.90;;;999.90;;
31974;SDS011;18500;43.618;1.474;2023-04-21T15:56:24;1999.90;;;999.90;;
31974;SDS011;18500;43.618;1.474;2023-04-21T15:58:50;1999.90;;;999.90;;
31974;SDS011;18500;43.618;1.474;2023-04-21T16:01:16;1999.90;;;999.90;;
31974;SDS011;18500;43.618;1.474;2023-04-21T16:03:41;1999.90;;;999.90;;
31974;SDS011;18500;43.618;1.474;2023-04-21T16:06:07;1999.90;;;999.90;;
31974;SDS011;18500;43.618;1.474;2023-04-21T16:08:33;1999.90;;;999.90;;
31974;SDS011;18500;43.618;1.474;2023-04-21T16:10:59;1999.90;;;999.90;;
31974;SDS011;18500;43.618;1.474;2023-04-21T16:13:24;1999.90;;;999.90;;
31974;SDS011;18500;43.618;1.474;2023-04-21T16:15:50;1999.90;;;999.90;;
31974;SDS011;18500;43.618;1.474;2023-04-21T16:18:16;1999.90;;;999.90;;
31974;SDS011;18500;43.618;1.474;2023-04-21T16:20:42;1999.90;;;999.90;;
31974;SDS011;18500;43.618;1.474;2023-04-21T16:23:10;1837.57;;;999.90;;
31974;SDS011;18500;43.618;1.474;2023-04-21T16:25:39;1349.88;;;968.50;;
31974;SDS011;18500;43.618;1.474;2023-04-21T16:28:05;1168.90;;;962.20;;
31974;SDS011;18500;43.618;1.474;2023-04-21T16:30:31;1206.82;;;963.67;;
31974;SDS011;18500;43.618;1.474;2023-04-21T16:32:58;1518.57;;;999.90;;
31974;SDS011;18500;43.618;1.474;2023-04-21T16:35:24;1317.10;;;997.38;;
31974;SDS011;18500;43.618;1.474;2023-04-21T16:37:50;1362.90;;;996.53;;
31974;SDS011;18500;43.618;1.474;2023-04-21T16:40:16;907.55;;;812.20;;
31974;SDS011;18500;43.618;1.474;2023-04-21T16:42:41;838.08;;;757.72;;
31974;SDS011;18500;43.618;1.474;2023-04-21T16:45:07;1179.35;;;941.60;;
31974;SDS011;18500;43.618;1.474;2023-04-21T16:47:34;887.83;;;800.83;;
31974;SDS011;18500;43.618;1.474;2023-04-21T16:50:02;980.75;;;881.13;;
31974;SDS011;18500;43.618;1.474;2023-04-21T16:52:28;1397.50;;;985.17;;
31974;SDS011;18500;43.618;1.474;2023-04-21T16:54:54;859.53;;;779.83;;
31974;SDS011;18500;43.618;1.474;2023-04-21T16:57:19;1108.57;;;950.92;;
31974;SDS011;18500;43.618;1.474;2023-04-21T16:59:48;966.67;;;872.95;;
31974;SDS011;18500;43.618;1.474;2023-04-21T17:02:15;947.90;;;855.72;;
31974;SDS011;18500;43.618;1.474;2023-04-21T17:04:41;1054.10;;;940.47;;
31974;SDS011;18500;43.618;1.474;2023-04-21T17:07:07;943.20;;;845.38;;
31974;SDS011;18500;43.618;1.474;2023-04-21T17:09:33;970.55;;;844.30;;
31974;SDS011;18500;43.618;1.474;2023-04-21T17:12:00;1168.78;;;947.70;;
31974;SDS011;18500;43.618;1.474;2023-04-21T17:14:26;1091.75;;;947.67;;
31974;SDS011;18500;43.618;1.474;2023-04-21T17:16:53;1053.70;;;952.88;;
31974;SDS011;18500;43.618;1.474;2023-04-21T17:19:19;998.38;;;905.75;;
31974;SDS011;18500;43.618;1.474;2023-04-21T17:21:45;897.47;;;816.10;;
31974;SDS011;18500;43.618;1.474;2023-04-21T17:24:11;1356.45;;;999.90;;
31974;SDS011;18500;43.618;1.474;2023-04-21T17:26:37;1210.20;;;999.90;;
31974;SDS011;18500;43.618;1.474;2023-04-21T17:29:03;760.03;;;694.17;;
31974;SDS011;18500;43.618;1.474;2023-04-21T17:31:29;788.00;;;718.10;;
31974;SDS011;18500;43.618;1.474;2023-04-21T17:33:57;784.63;;;718.28;;
31974;SDS011;18500;43.618;1.474;2023-04-21T17:36:23;733.17;;;672.58;;
31974;SDS011;18500;43.618;1.474;2023-04-21T17:38:53;802.55;;;735.45;;
31974;SDS011;18500;43.618;1.474;2023-04-21T17:41:19;859.50;;;786.25;;
31974;SDS011;18500;43.618;1.474;2023-04-21T17:43:45;977.08;;;888.28;;
31974;SDS011;18500;43.618;1.474;2023-04-21T17:46:11;1041.75;;;940.80;;
31974;SDS011;18500;43.618;1.474;2023-04-21T17:48:36;937.70;;;857.10;;
31974;SDS011;18500;43.618;1.474;2023-04-21T17:51:02;865.70;;;795.65;;
31974;SDS011;18500;43.618;1.474;2023-04-21T17:53:28;892.83;;;819.33;;
31974;SDS011;18500;43.618;1.474;2023-04-21T17:55:55;1068.18;;;964.72;;
31974;SDS011;18500;43.618;1.474;2023-04-21T17:58:21;1090.65;;;976.28;;
31974;SDS011;18500;43.618;1.474;2023-04-21T18:00:47;856.13;;;783.60;;
31974;SDS011;18500;43.618;1.474;2023-04-21T18:03:12;860.22;;;789.03;;
31974;SDS011;18500;43.618;1.474;2023-04-21T18:05:38;910.55;;;833.80;;
31974;SDS011;18500;43.618;1.474;2023-04-21T18:08:04;993.10;;;898.67;;
31974;SDS011;18500;43.618;1.474;2023-04-21T18:10:30;848.53;;;779.28;;
31974;SDS011;18500;43.618;1.474;2023-04-21T18:12:56;857.58;;;789.15;;
31974;SDS011;18500;43.618;1.474;2023-04-21T18:15:22;856.00;;;789.90;;
31974;SDS011;18500;43.618;1.474;2023-04-21T18:17:48;820.50;;;756.92;;
31974;SDS011;18500;43.618;1.474;2023-04-21T18:20:14;757.80;;;701.55;;
31974;SDS011;18500;43.618;1.474;2023-04-21T18:22:41;843.60;;;779.67;;
31974;SDS011;18500;43.618;1.474;2023-04-21T18:25:07;919.88;;;846.63;;
31974;SDS011;18500;43.618;1.474;2023-04-21T18:27:34;918.33;;;843.47;;
31974;SDS011;18500;43.618;1.474;2023-04-21T18:30:00;942.85;;;864.65;;
31974;SDS011;18500;43.618;1.474;2023-04-21T18:32:25;917.25;;;841.58;;
31974;SDS011;18500;43.618;1.474;2023-04-21T18:34:51;920.60;;;841.25;;
31974;SDS011;18500;43.618;1.474;2023-04-21T18:37:17;970.28;;;882.03;;
31974;SDS011;18500;43.618;1.474;2023-04-21T18:39:42;989.35;;;900.03;;
31974;SDS011;18500;43.618;1.474;2023-04-21T18:42:08;967.65;;;879.63;;
31974;SDS011;18500;43.618;1.474;2023-04-21T18:44:34;1082.93;;;976.38;;
31974;SDS011;18500;43.618;1.474;2023-04-21T18:47:00;1080.18;;;966.20;;
31974;SDS011;18500;43.618;1.474;2023-04-21T18:49:25;1040.53;;;941.63;;
31974;SDS011;18500;43.618;1.474;2023-04-21T18:51:51;973.22;;;887.95;;
31974;SDS011;18500;43.618;1.474;2023-04-21T18:54:17;1070.53;;;966.15;;
31974;SDS011;18500;43.618;1.474;2023-04-21T18:56:43;1018.55;;;919.95;;
31974;SDS011;18500;43.618;1.474;2023-04-21T18:59:09;955.70;;;873.45;;
31974;SDS011;18500;43.618;1.474;2023-04-21T19:01:35;947.45;;;863.90;;
31974;SDS011;18500;43.618;1.474;2023-04-21T19:04:01;943.38;;;857.05;;
31974;SDS011;18500;43.618;1.474;2023-04-21T19:06:26;963.33;;;876.83;;
31974;SDS011;18500;43.618;1.474;2023-04-21T19:08:53;1028.53;;;935.30;;
31974;SDS011;18500;43.618;1.474;2023-04-21T19:11:18;1000.03;;;905.58;;
31974;SDS011;18500;43.618;1.474;2023-04-21T19:13:44;1039.13;;;939.08;;
31974;SDS011;18500;43.618;1.474;2023-04-21T19:16:12;1103.68;;;988.63;;
31974;SDS011;18500;43.618;1.474;2023-04-21T19:18:39;973.88;;;884.50;;
31974;SDS011;18500;43.618;1.474;2023-04-21T19:21:05;1088.28;;;978.60;;
31974;SDS011;18500;43.618;1.474;2023-04-21T19:23:34;996.63;;;901.28;;
31974;SDS011;18500;43.618;1.474;2023-04-21T19:26:00;1034.22;;;935.50;;
31974;SDS011;18500;43.618;1.474;2023-04-21T19:28:28;1105.97;;;990.42;;
31974;SDS011;18500;43.618;1.474;2023-04-21T19:30:55;1026.53;;;927.63;;
31974;SDS011;18500;43.618;1.474;2023-04-21T19:33:21;1073.05;;;968.33;;
31974;SDS011;18500;43.618;1.474;2023-04-21T19:35:46;914.33;;;834.78;;
31974;SDS011;18500;43.618;1.474;2023-04-21T19:38:12;1031.30;;;932.15;;
31974;SDS011;18500;43.618;1.474;2023-04-21T19:40:38;912.05;;;830.92;;
31974;SDS011;18500;43.618;1.474;2023-04-21T19:43:08;868.60;;;796.60;;
31974;SDS011;18500;43.618;1.474;2023-04-21T19:45:34;850.90;;;778.95;;
31974;SDS011;18500;43.618;1.474;2023-04-21T19:47:59;840.08;;;768.15;;
31974;SDS011;18500;43.618;1.474;2023-04-21T19:50:25;893.97;;;820.25;;
31974;SDS011;18500;43.618;1.474;2023-04-21T19:52:51;845.30;;;778.08;;
31974;SDS011;18500;43.618;1.474;2023-04-21T19:55:17;839.65;;;772.17;;
31974;SDS011;18500;43.618;1.474;2023-04-21T19:57:43;913.92;;;832.58;;
31974;SDS011;18500;43.618;1.474;2023-04-21T20:00:09;813.10;;;748.55;;
31974;SDS011;18500;43.618;1.474;2023-04-21T20:02:35;880.08;;;803.13;;
31974;SDS011;18500;43.618;1.474;2023-04-21T20:05:01;954.58;;;871.35;;
31974;SDS011;18500;43.618;1.474;2023-04-21T20:07:26;1205.63;;;999.05;;
31974;SDS011;18500;43.618;1.474;2023-04-21T20:09:52;933.75;;;854.15;;
31974;SDS011;18500;43.618;1.474;2023-04-21T20:12:17;855.67;;;780.78;;
31974;SDS011;18500;43.618;1.474;2023-04-21T20:14:43;796.28;;;733.45;;
